Thursday, May 24, 2018, 12:19 AM EDT
Back to Local

KBML, Berlin Municipal Airport

Location: Milan, NH, United States Lat: 44.583
Local Time: 12:19 AM EDT ( 4:19 GMT) Lon: -71.183
Time Zone: US/Eastern Elev: 1158 ft

Show me the last for .
Show Decoded

2018-05-23 23:52 METAR KBML 240352Z AUTO 00000KT 10SM CLR 07/06 A2999 RMK AO2 SLP157 T00720056 =
2018-05-23 22:52 METAR KBML 240252Z AUTO 34004KT 10SM SCT080 10/07 A2998 RMK AO2 SLP154 T01000067
                 51014 =
2018-05-23 21:52 METAR KBML 240152Z AUTO 00000KT 10SM BKN065 12/08 A2997 RMK AO2 SLP151 T01170083
                 =
2018-05-23 20:52 METAR KBML 240052Z AUTO 00000KT 10SM BKN070 BKN085 13/08 A2996 RMK AO2 SLP146
                 T01330078 =
2018-05-23 19:52 METAR KBML 232352Z AUTO 00000KT 10SM CLR 16/06 A2994 RMK AO2 SLP139 T01610056
                 10239 20161 53019 =
2018-05-23 18:52 METAR KBML 232252Z AUTO 33008KT 10SM CLR 19/04 A2992 RMK AO2 SLP132 T01940044 =
2018-05-23 17:52 METAR KBML 232152Z AUTO 34007G18KT 10SM SCT065 20/06 A2990 RMK AO2 SLP126
                 T02000056 =
2018-05-23 16:52 METAR KBML 232052Z AUTO 32012G21KT 10SM FEW060 22/05 A2988 RMK AO2 SLP119
                 T02170050 51018 =
2018-05-23 15:52 METAR KBML 231952Z AUTO 35014G20KT 10SM FEW050 SCT060 BKN070 22/09 A2987 RMK AO2
                 SLP115 T02170094 =
2018-05-23 14:52 METAR KBML 231852Z AUTO 32009G20KT 280V340 10SM FEW049 SCT060 22/08 A2986 RMK
                 AO2 SLP110 T02220083 =
2018-05-23 13:52 METAR KBML 231752Z AUTO 34009G19KT 10SM BKN055 BKN075 24/09 A2983 RMK AO2 SLP099
                 T02390089 10244 20150 57012 =
2018-05-23 12:52 METAR KBML 231652Z AUTO VRB06G15KT 10SM CLR 23/11 A2984 RMK AO2 SLP102 T02330111
                 =
2018-05-23 11:52 METAR KBML 231552Z AUTO VRB06KT 10SM CLR 21/12 A2986 RMK AO2 SLP110 T02110117 =
2018-05-23 10:52 METAR KBML 231452Z AUTO VRB06KT 10SM CLR 19/11 A2987 RMK AO2 SLP114 T01940111
                 58008 =
2018-05-23 09:52 METAR KBML 231352Z AUTO VRB05KT 10SM SCT022 18/11 A2988 RMK AO2 SLP119 T01780111
                 =
2018-05-23 09:34 METAR KBML 231334Z AUTO VRB03KT 10SM BKN021 17/11 A2989 RMK AO2 T01670111 =
2018-05-23 09:19 METAR KBML 231319Z AUTO VRB06KT 10SM SCT020 17/12 A2989 RMK AO2 T01670117 =
2018-05-23 08:52 METAR KBML 231252Z AUTO VRB03KT 10SM BKN020 16/11 A2990 RMK AO2 SLP125 T01610111
                 =
2018-05-23 08:29 METAR KBML 231229Z AUTO 32004KT 10SM FEW019 SCT025 15/11 A2990 RMK AO2 T01500106
                 =
2018-05-23 07:52 METAR KBML 231152Z AUTO VRB05KT 10SM OVC025 15/12 A2989 RMK AO2 SLP124 70003
                 T01500117 10150 20111 51014 =
2018-05-23 06:52 METAR KBML 231052Z AUTO 00000KT 10SM OVC024 13/12 A2988 RMK AO2 SLP120 T01280117
                 =
2018-05-23 05:52 METAR KBML 230952Z AUTO 00000KT 10SM FEW009 OVC024 12/11 A2986 RMK AO2 SLP115
                 T01170111 =
2018-05-23 05:43 METAR KBML 230943Z AUTO 00000KT 10SM SCT009 OVC024 12/11 A2986 RMK AO2 T01170111
                 =
2018-05-23 05:27 METAR KBML 230927Z AUTO 00000KT 10SM SCT010 OVC028 12/11 A2986 RMK AO2 T01170111
                 =
2018-05-23 04:52 METAR KBML 230852Z AUTO 00000KT 10SM FEW020 OVC034 12/11 A2985 RMK AO2 SLP110
                 T01170111 55004 =
2018-05-23 04:23 METAR KBML 230823Z AUTO 00000KT 10SM FEW020 SCT024 OVC038 12/11 A2985 RMK AO2
                 T01170111 =
2018-05-23 03:52 METAR KBML 230752Z AUTO 00000KT 10SM FEW010 SCT016 OVC023 12/11 A2985 RMK AO2
                 SLP108 T01170111 =
2018-05-23 03:28 METAR KBML 230728Z AUTO 00000KT 10SM SCT016 BKN023 OVC042 12/11 A2985 RMK AO2
                 T01170111 =
2018-05-23 03:00 METAR KBML 230700Z AUTO 00000KT 10SM FEW019 SCT025 OVC043 12/11 A2985 RMK AO2
                 T01220111 =
2018-05-23 02:52 METAR KBML 230652Z AUTO 00000KT 10SM FEW011 BKN019 OVC043 12/11 A2985 RMK AO2
                 SLP109 T01220111 =
2018-05-23 02:29 METAR KBML 230629Z AUTO 00000KT 8SM SCT010 BKN019 OVC043 12/12 A2985 RMK AO2
                 T01220117 =
2018-05-23 02:21 METAR KBML 230621Z AUTO 00000KT 8SM BKN012 OVC019 12/12 A2986 RMK AO2 T01220117
                 =
2018-05-23 01:52 METAR KBML 230552Z AUTO 00000KT 10SM OVC015 12/12 A2986 RMK AO2 SLP111 60000
                 T01220117 10128 20122 56009 =
2018-05-23 00:52 METAR KBML 230452Z AUTO 34004KT 10SM OVC021 12/11 A2987 RMK AO2 RAB28E37 SLP114
                 P0000 T01220111 402220044 =

Support USWX by starting your Amazon purchase here.